sensor_id;sensor_type;location;lat;lon;timestamp;temperature;humidity
24217;DHT22;12356;49.386;8.688;2022-09-16T00:01:56;17.60;69.30
24217;DHT22;12356;49.386;8.688;2022-09-16T00:04:27;17.60;70.00
24217;DHT22;12356;49.386;8.688;2022-09-16T00:06:57;17.50;69.70
24217;DHT22;12356;49.386;8.688;2022-09-16T00:09:28;17.60;69.20
24217;DHT22;12356;49.386;8.688;2022-09-16T00:11:59;17.60;68.00
24217;DHT22;12356;49.386;8.688;2022-09-16T00:14:30;17.50;67.50
24217;DHT22;12356;49.386;8.688;2022-09-16T00:17:00;17.50;67.10
24217;DHT22;12356;49.386;8.688;2022-09-16T00:19:31;17.50;68.10
24217;DHT22;12356;49.386;8.688;2022-09-16T00:22:02;17.50;67.50
24217;DHT22;12356;49.386;8.688;2022-09-16T00:24:33;17.40;67.70
24217;DHT22;12356;49.386;8.688;2022-09-16T00:27:03;17.40;67.30
24217;DHT22;12356;49.386;8.688;2022-09-16T00:29:34;17.40;67.70
24217;DHT22;12356;49.386;8.688;2022-09-16T00:32:05;17.40;68.40
24217;DHT22;12356;49.386;8.688;2022-09-16T00:34:36;17.30;68.80
24217;DHT22;12356;49.386;8.688;2022-09-16T00:37:06;17.20;69.60
24217;DHT22;12356;49.386;8.688;2022-09-16T00:39:37;17.10;70.00
24217;DHT22;12356;49.386;8.688;2022-09-16T00:42:09;17.00;70.10
24217;DHT22;12356;49.386;8.688;2022-09-16T00:44:54;17.00;70.60
24217;DHT22;12356;49.386;8.688;2022-09-16T00:47:38;17.00;70.90
24217;DHT22;12356;49.386;8.688;2022-09-16T00:52:49;17.00;70.90
24217;DHT22;12356;49.386;8.688;2022-09-16T00:55:23;17.00;70.80
24217;DHT22;12356;49.386;8.688;2022-09-16T00:57:58;16.90;71.50
24217;DHT22;12356;49.386;8.688;2022-09-16T01:00:30;16.90;71.50
24217;DHT22;12356;49.386;8.688;2022-09-16T01:03:01;16.90;71.50
24217;DHT22;12356;49.386;8.688;2022-09-16T01:05:33;16.80;71.40
24217;DHT22;12356;49.386;8.688;2022-09-16T01:08:03;16.90;71.80
24217;DHT22;12356;49.386;8.688;2022-09-16T01:10:35;16.80;72.60
24217;DHT22;12356;49.386;8.688;2022-09-16T01:13:07;16.80;73.10
24217;DHT22;12356;49.386;8.688;2022-09-16T01:23:59;16.60;74.40
24217;DHT22;12356;49.386;8.688;2022-09-16T01:29:23;16.70;75.10
24217;DHT22;12356;49.386;8.688;2022-09-16T01:45:42;16.60;74.90
24217;DHT22;12356;49.386;8.688;2022-09-16T01:48:36;16.60;75.40
24217;DHT22;12356;49.386;8.688;2022-09-16T01:51:18;16.70;75.50
24217;DHT22;12356;49.386;8.688;2022-09-16T01:53:59;16.70;75.20
24217;DHT22;12356;49.386;8.688;2022-09-16T01:57:32;16.60;75.60
24217;DHT22;12356;49.386;8.688;2022-09-16T01:59:41;16.50;75.80
24217;DHT22;12356;49.386;8.688;2022-09-16T02:02:22;16.50;76.10
24217;DHT22;12356;49.386;8.688;2022-09-16T02:04:57;16.60;75.90
24217;DHT22;12356;49.386;8.688;2022-09-16T02:07:32;16.50;75.80
24217;DHT22;12356;49.386;8.688;2022-09-16T02:10:09;16.40;75.90
24217;DHT22;12356;49.386;8.688;2022-09-16T02:12:43;16.50;76.40
24217;DHT22;12356;49.386;8.688;2022-09-16T02:15:15;16.40;76.60
24217;DHT22;12356;49.386;8.688;2022-09-16T02:17:57;16.40;76.80
24217;DHT22;12356;49.386;8.688;2022-09-16T02:20:31;16.40;74.20
24217;DHT22;12356;49.386;8.688;2022-09-16T02:23:10;16.40;71.50
24217;DHT22;12356;49.386;8.688;2022-09-16T02:25:45;16.40;70.60
24217;DHT22;12356;49.386;8.688;2022-09-16T02:28:20;16.50;68.40
24217;DHT22;12356;49.386;8.688;2022-09-16T02:30:55;16.50;68.60
24217;DHT22;12356;49.386;8.688;2022-09-16T02:33:39;16.50;68.80
24217;DHT22;12356;49.386;8.688;2022-09-16T02:36:13;16.50;69.40
24217;DHT22;12356;49.386;8.688;2022-09-16T02:38:47;16.60;69.60
24217;DHT22;12356;49.386;8.688;2022-09-16T02:41:19;16.60;68.80
24217;DHT22;12356;49.386;8.688;2022-09-16T02:43:50;16.70;69.20
24217;DHT22;12356;49.386;8.688;2022-09-16T02:46:33;16.70;69.20
24217;DHT22;12356;49.386;8.688;2022-09-16T02:52:15;16.70;70.60
24217;DHT22;12356;49.386;8.688;2022-09-16T02:54:58;16.60;71.70
24217;DHT22;12356;49.386;8.688;2022-09-16T02:57:30;16.60;71.70
24217;DHT22;12356;49.386;8.688;2022-09-16T03:00:01;16.70;71.40
24217;DHT22;12356;49.386;8.688;2022-09-16T03:02:33;16.60;71.40
24217;DHT22;12356;49.386;8.688;2022-09-16T03:05:05;16.70;72.00
24217;DHT22;12356;49.386;8.688;2022-09-16T03:07:36;16.70;72.80
24217;DHT22;12356;49.386;8.688;2022-09-16T03:10:11;16.70;73.70
24217;DHT22;12356;49.386;8.688;2022-09-16T03:15:43;16.60;73.70
24217;DHT22;12356;49.386;8.688;2022-09-16T03:18:51;16.50;73.50
24217;DHT22;12356;49.386;8.688;2022-09-16T03:21:35;16.50;74.10
24217;DHT22;12356;49.386;8.688;2022-09-16T03:24:16;16.60;74.40
24217;DHT22;12356;49.386;8.688;2022-09-16T03:27:20;16.60;74.80
24217;DHT22;12356;49.386;8.688;2022-09-16T03:29:59;16.60;75.00
24217;DHT22;12356;49.386;8.688;2022-09-16T03:32:48;16.50;75.40
24217;DHT22;12356;49.386;8.688;2022-09-16T03:35:29;16.50;75.30
24217;DHT22;12356;49.386;8.688;2022-09-16T03:38:02;16.50;75.00
24217;DHT22;12356;49.386;8.688;2022-09-16T03:40:33;16.60;75.60
24217;DHT22;12356;49.386;8.688;2022-09-16T03:43:11;16.50;75.10
24217;DHT22;12356;49.386;8.688;2022-09-16T03:45:43;16.50;75.20
24217;DHT22;12356;49.386;8.688;2022-09-16T03:48:13;16.50;74.90
24217;DHT22;12356;49.386;8.688;2022-09-16T03:50:44;16.50;75.20
24217;DHT22;12356;49.386;8.688;2022-09-16T03:53:15;16.50;75.40
24217;DHT22;12356;49.386;8.688;2022-09-16T03:55:47;16.40;75.80
24217;DHT22;12356;49.386;8.688;2022-09-16T03:58:19;16.40;76.60
24217;DHT22;12356;49.386;8.688;2022-09-16T04:00:49;16.40;76.40
24217;DHT22;12356;49.386;8.688;2022-09-16T04:03:21;16.50;76.30
24217;DHT22;12356;49.386;8.688;2022-09-16T04:05:53;16.50;76.20
24217;DHT22;12356;49.386;8.688;2022-09-16T04:08:24;16.40;76.80
24217;DHT22;12356;49.386;8.688;2022-09-16T04:11:00;16.50;77.00
24217;DHT22;12356;49.386;8.688;2022-09-16T04:13:32;16.50;76.50
24217;DHT22;12356;49.386;8.688;2022-09-16T04:16:03;16.40;75.70
24217;DHT22;12356;49.386;8.688;2022-09-16T04:18:34;16.40;76.80
24217;DHT22;12356;49.386;8.688;2022-09-16T04:21:05;16.30;76.90
24217;DHT22;12356;49.386;8.688;2022-09-16T04:23:35;16.30;76.90
24217;DHT22;12356;49.386;8.688;2022-09-16T04:26:06;16.30;77.00
24217;DHT22;12356;49.386;8.688;2022-09-16T04:28:37;16.30;77.40
24217;DHT22;12356;49.386;8.688;2022-09-16T04:31:10;16.30;77.60
24217;DHT22;12356;49.386;8.688;2022-09-16T04:33:41;16.20;76.80
24217;DHT22;12356;49.386;8.688;2022-09-16T04:36:14;16.20;78.10
24217;DHT22;12356;49.386;8.688;2022-09-16T04:38:46;16.20;79.10
24217;DHT22;12356;49.386;8.688;2022-09-16T04:41:19;16.20;80.30
24217;DHT22;12356;49.386;8.688;2022-09-16T04:43:55;16.20;80.50
24217;DHT22;12356;49.386;8.688;2022-09-16T04:46:28;16.10;80.20
24217;DHT22;12356;49.386;8.688;2022-09-16T04:48:59;16.20;80.20
24217;DHT22;12356;49.386;8.688;2022-09-16T04:51:30;16.20;80.20
24217;DHT22;12356;49.386;8.688;2022-09-16T04:54:01;16.10;80.10
24217;DHT22;12356;49.386;8.688;2022-09-16T04:56:32;16.00;80.70
24217;DHT22;12356;49.386;8.688;2022-09-16T04:59:04;16.00;80.70
24217;DHT22;12356;49.386;8.688;2022-09-16T05:01:37;16.00;81.20
24217;DHT22;12356;49.386;8.688;2022-09-16T05:04:08;16.00;81.30
24217;DHT22;12356;49.386;8.688;2022-09-16T05:06:40;16.00;81.00
24217;DHT22;12356;49.386;8.688;2022-09-16T05:09:11;16.00;81.10
24217;DHT22;12356;49.386;8.688;2022-09-16T05:11:42;16.10;81.30
24217;DHT22;12356;49.386;8.688;2022-09-16T05:14:15;16.00;81.30
24217;DHT22;12356;49.386;8.688;2022-09-16T05:16:46;16.00;81.50
24217;DHT22;12356;49.386;8.688;2022-09-16T05:19:17;16.00;82.00
24217;DHT22;12356;49.386;8.688;2022-09-16T05:21:47;16.10;82.30
24217;DHT22;12356;49.386;8.688;2022-09-16T05:24:18;16.10;82.50
24217;DHT22;12356;49.386;8.688;2022-09-16T05:26:48;16.10;82.40
24217;DHT22;12356;49.386;8.688;2022-09-16T05:29:19;16.10;82.10
24217;DHT22;12356;49.386;8.688;2022-09-16T05:31:50;16.10;82.30
24217;DHT22;12356;49.386;8.688;2022-09-16T05:34:21;16.20;82.80
24217;DHT22;12356;49.386;8.688;2022-09-16T05:36:57;16.10;83.10
24217;DHT22;12356;49.386;8.688;2022-09-16T05:39:29;16.10;82.80
24217;DHT22;12356;49.386;8.688;2022-09-16T05:42:00;16.10;82.70
24217;DHT22;12356;49.386;8.688;2022-09-16T05:44:31;16.00;82.80
24217;DHT22;12356;49.386;8.688;2022-09-16T05:47:02;16.10;82.70
24217;DHT22;12356;49.386;8.688;2022-09-16T05:49:32;16.10;82.50
24217;DHT22;12356;49.386;8.688;2022-09-16T05:52:03;16.10;82.30
24217;DHT22;12356;49.386;8.688;2022-09-16T05:54:34;16.10;82.10
24217;DHT22;12356;49.386;8.688;2022-09-16T05:57:04;16.10;82.40
24217;DHT22;12356;49.386;8.688;2022-09-16T05:59:35;16.10;82.60
24217;DHT22;12356;49.386;8.688;2022-09-16T06:02:07;16.10;82.70
24217;DHT22;12356;49.386;8.688;2022-09-16T06:04:37;16.10;82.80
24217;DHT22;12356;49.386;8.688;2022-09-16T06:07:08;16.10;82.60
24217;DHT22;12356;49.386;8.688;2022-09-16T06:09:39;16.20;82.90
24217;DHT22;12356;49.386;8.688;2022-09-16T06:12:11;16.20;82.80
24217;DHT22;12356;49.386;8.688;2022-09-16T06:14:41;16.10;83.00
24217;DHT22;12356;49.386;8.688;2022-09-16T06:17:12;16.10;83.50
24217;DHT22;12356;49.386;8.688;2022-09-16T06:19:42;16.10;83.00
24217;DHT22;12356;49.386;8.688;2022-09-16T06:22:13;16.10;82.90
24217;DHT22;12356;49.386;8.688;2022-09-16T06:24:44;16.10;82.90
24217;DHT22;12356;49.386;8.688;2022-09-16T06:27:14;16.20;83.60
24217;DHT22;12356;49.386;8.688;2022-09-16T06:29:45;16.20;84.30
24217;DHT22;12356;49.386;8.688;2022-09-16T06:32:16;16.20;84.30
24217;DHT22;12356;49.386;8.688;2022-09-16T06:34:46;16.20;83.60
24217;DHT22;12356;49.386;8.688;2022-09-16T06:37:17;16.10;83.50
24217;DHT22;12356;49.386;8.688;2022-09-16T06:39:48;16.10;83.60
24217;DHT22;12356;49.386;8.688;2022-09-16T06:42:18;16.10;83.70
24217;DHT22;12356;49.386;8.688;2022-09-16T06:44:49;16.10;83.60
24217;DHT22;12356;49.386;8.688;2022-09-16T06:47:19;16.20;83.60
24217;DHT22;12356;49.386;8.688;2022-09-16T06:49:50;16.20;83.80
24217;DHT22;12356;49.386;8.688;2022-09-16T06:52:21;16.20;84.10
24217;DHT22;12356;49.386;8.688;2022-09-16T06:54:52;16.10;84.10
24217;DHT22;12356;49.386;8.688;2022-09-16T06:57:22;16.30;84.20
24217;DHT22;12356;49.386;8.688;2022-09-16T06:59:53;16.20;83.80
24217;DHT22;12356;49.386;8.688;2022-09-16T07:02:24;16.20;83.70
24217;DHT22;12356;49.386;8.688;2022-09-16T07:04:54;16.30;83.70
24217;DHT22;12356;49.386;8.688;2022-09-16T07:07:29;16.30;83.60
24217;DHT22;12356;49.386;8.688;2022-09-16T07:09:59;16.30;83.70
24217;DHT22;12356;49.386;8.688;2022-09-16T07:12:30;16.40;83.10
24217;DHT22;12356;49.386;8.688;2022-09-16T07:15:01;16.30;82.70
24217;DHT22;12356;49.386;8.688;2022-09-16T07:17:31;16.30;83.20
24217;DHT22;12356;49.386;8.688;2022-09-16T07:20:02;16.40;82.80
24217;DHT22;12356;49.386;8.688;2022-09-16T07:22:33;16.40;83.60
24217;DHT22;12356;49.386;8.688;2022-09-16T07:25:04;16.50;83.70
24217;DHT22;12356;49.386;8.688;2022-09-16T07:27:34;16.50;84.20
24217;DHT22;12356;49.386;8.688;2022-09-16T07:30:05;16.50;83.40
24217;DHT22;12356;49.386;8.688;2022-09-16T07:32:36;16.50;83.30
24217;DHT22;12356;49.386;8.688;2022-09-16T07:35:07;16.50;82.80
24217;DHT22;12356;49.386;8.688;2022-09-16T07:37:39;16.60;82.70
24217;DHT22;12356;49.386;8.688;2022-09-16T07:40:10;16.60;82.70
24217;DHT22;12356;49.386;8.688;2022-09-16T07:42:42;16.50;83.20
24217;DHT22;12356;49.386;8.688;2022-09-16T07:45:13;16.50;84.20
24217;DHT22;12356;49.386;8.688;2022-09-16T07:47:48;16.60;84.00
24217;DHT22;12356;49.386;8.688;2022-09-16T07:50:18;16.60;83.70
24217;DHT22;12356;49.386;8.688;2022-09-16T07:52:54;16.60;83.60
24217;DHT22;12356;49.386;8.688;2022-09-16T07:55:24;16.70;83.70
24217;DHT22;12356;49.386;8.688;2022-09-16T07:57:56;16.70;83.60
24217;DHT22;12356;49.386;8.688;2022-09-16T08:00:27;16.70;81.30
24217;DHT22;12356;49.386;8.688;2022-09-16T08:02:57;16.80;81.60
24217;DHT22;12356;49.386;8.688;2022-09-16T08:05:28;16.80;80.60
24217;DHT22;12356;49.386;8.688;2022-09-16T08:07:59;16.80;76.70
24217;DHT22;12356;49.386;8.688;2022-09-16T08:10:29;16.90;74.60
24217;DHT22;12356;49.386;8.688;2022-09-16T08:13:00;16.90;73.30
24217;DHT22;12356;49.386;8.688;2022-09-16T08:15:30;16.90;75.10
24217;DHT22;12356;49.386;8.688;2022-09-16T08:18:01;16.90;76.20
24217;DHT22;12356;49.386;8.688;2022-09-16T08:20:32;16.90;75.00
24217;DHT22;12356;49.386;8.688;2022-09-16T08:23:03;16.90;75.50
24217;DHT22;12356;49.386;8.688;2022-09-16T08:25:33;16.90;74.60
24217;DHT22;12356;49.386;8.688;2022-09-16T08:28:11;16.90;75.70
24217;DHT22;12356;49.386;8.688;2022-09-16T08:30:42;16.80;73.70
24217;DHT22;12356;49.386;8.688;2022-09-16T08:33:13;16.70;71.90
24217;DHT22;12356;49.386;8.688;2022-09-16T08:35:44;16.70;71.80
24217;DHT22;12356;49.386;8.688;2022-09-16T08:38:14;16.60;71.90
24217;DHT22;12356;49.386;8.688;2022-09-16T08:40:45;16.60;71.90
24217;DHT22;12356;49.386;8.688;2022-09-16T08:43:24;16.60;72.30
24217;DHT22;12356;49.386;8.688;2022-09-16T08:46:08;16.60;72.00
24217;DHT22;12356;49.386;8.688;2022-09-16T08:49:00;16.70;72.50
24217;DHT22;12356;49.386;8.688;2022-09-16T08:51:34;16.80;72.30
24217;DHT22;12356;49.386;8.688;2022-09-16T08:54:22;16.70;70.70
24217;DHT22;12356;49.386;8.688;2022-09-16T08:56:58;16.70;64.90
24217;DHT22;12356;49.386;8.688;2022-09-16T08:59:34;16.70;65.90
24217;DHT22;12356;49.386;8.688;2022-09-16T09:02:54;16.80;65.80
24217;DHT22;12356;49.386;8.688;2022-09-16T09:08:09;16.80;63.60
24217;DHT22;12356;49.386;8.688;2022-09-16T09:10:52;16.80;63.20
24217;DHT22;12356;49.386;8.688;2022-09-16T09:16:37;16.90;66.30
24217;DHT22;12356;49.386;8.688;2022-09-16T09:22:32;16.80;64.20
24217;DHT22;12356;49.386;8.688;2022-09-16T09:37:11;16.80;62.90
24217;DHT22;12356;49.386;8.688;2022-09-16T09:42:27;16.80;61.90
24217;DHT22;12356;49.386;8.688;2022-09-16T09:48:40;16.80;59.00
24217;DHT22;12356;49.386;8.688;2022-09-16T09:50:47;16.90;55.00
24217;DHT22;12356;49.386;8.688;2022-09-16T09:53:28;17.00;53.20
24217;DHT22;12356;49.386;8.688;2022-09-16T09:56:35;17.00;52.60
24217;DHT22;12356;49.386;8.688;2022-09-16T09:59:28;17.00;53.60
24217;DHT22;12356;49.386;8.688;2022-09-16T10:02:00;16.90;53.50
24217;DHT22;12356;49.386;8.688;2022-09-16T10:04:36;16.90;54.40
24217;DHT22;12356;49.386;8.688;2022-09-16T10:07:08;17.00;55.70
24217;DHT22;12356;49.386;8.688;2022-09-16T10:10:13;17.00;55.60
24217;DHT22;12356;49.386;8.688;2022-09-16T10:12:44;17.00;55.30
24217;DHT22;12356;49.386;8.688;2022-09-16T10:15:23;17.00;55.80
24217;DHT22;12356;49.386;8.688;2022-09-16T10:17:57;17.00;57.30
24217;DHT22;12356;49.386;8.688;2022-09-16T10:20:41;17.10;57.80
24217;DHT22;12356;49.386;8.688;2022-09-16T10:23:14;17.10;58.50
24217;DHT22;12356;49.386;8.688;2022-09-16T10:25:45;17.30;55.10
24217;DHT22;12356;49.386;8.688;2022-09-16T10:28:25;17.40;56.00
24217;DHT22;12356;49.386;8.688;2022-09-16T10:30:57;17.40;54.40
24217;DHT22;12356;49.386;8.688;2022-09-16T10:33:31;17.40;51.00
24217;DHT22;12356;49.386;8.688;2022-09-16T10:36:08;17.50;50.40
24217;DHT22;12356;49.386;8.688;2022-09-16T10:38:41;17.50;45.70
24217;DHT22;12356;49.386;8.688;2022-09-16T10:41:16;17.50;45.70
24217;DHT22;12356;49.386;8.688;2022-09-16T10:43:52;17.50;45.40
24217;DHT22;12356;49.386;8.688;2022-09-16T10:46:24;17.40;45.60
24217;DHT22;12356;49.386;8.688;2022-09-16T10:48:59;17.40;45.90
24217;DHT22;12356;49.386;8.688;2022-09-16T10:51:31;17.40;43.80
24217;DHT22;12356;49.386;8.688;2022-09-16T10:54:04;17.40;44.80
24217;DHT22;12356;49.386;8.688;2022-09-16T10:56:48;17.40;45.50
24217;DHT22;12356;49.386;8.688;2022-09-16T10:59:19;17.50;45.70
24217;DHT22;12356;49.386;8.688;2022-09-16T11:02:16;17.50;45.70
24217;DHT22;12356;49.386;8.688;2022-09-16T11:10:30;17.60;45.80
24217;DHT22;12356;49.386;8.688;2022-09-16T11:21:52;17.80;47.70
24217;DHT22;12356;49.386;8.688;2022-09-16T11:30:32;18.00;49.30
24217;DHT22;12356;49.386;8.688;2022-09-16T11:33:16;18.10;49.40
24217;DHT22;12356;49.386;8.688;2022-09-16T11:36:16;18.00;48.40
24217;DHT22;12356;49.386;8.688;2022-09-16T11:39:14;18.10;48.30
24217;DHT22;12356;49.386;8.688;2022-09-16T12:01:27;18.40;46.60
24217;DHT22;12356;49.386;8.688;2022-09-16T12:09:40;18.50;44.40
24217;DHT22;12356;49.386;8.688;2022-09-16T12:12:20;18.50;43.90
24217;DHT22;12356;49.386;8.688;2022-09-16T12:14:58;18.50;43.30
24217;DHT22;12356;49.386;8.688;2022-09-16T12:17:35;18.60;42.50
24217;DHT22;12356;49.386;8.688;2022-09-16T12:20:17;18.60;43.90
24217;DHT22;12356;49.386;8.688;2022-09-16T12:22:57;18.60;44.30
24217;DHT22;12356;49.386;8.688;2022-09-16T12:25:38;18.60;44.50
24217;DHT22;12356;49.386;8.688;2022-09-16T12:28:31;18.60;43.10
24217;DHT22;12356;49.386;8.688;2022-09-16T12:34:16;18.60;44.70
24217;DHT22;12356;49.386;8.688;2022-09-16T12:37:42;18.60;42.10
24217;DHT22;12356;49.386;8.688;2022-09-16T12:39:48;18.50;42.00
24217;DHT22;12356;49.386;8.688;2022-09-16T12:45:42;18.40;45.70
24217;DHT22;12356;49.386;8.688;2022-09-16T12:59:35;18.30;47.40
24217;DHT22;12356;49.386;8.688;2022-09-16T13:02:22;18.30;48.20
24217;DHT22;12356;49.386;8.688;2022-09-16T13:04:59;18.40;50.30
24217;DHT22;12356;49.386;8.688;2022-09-16T13:07:34;18.30;46.50
24217;DHT22;12356;49.386;8.688;2022-09-16T13:10:14;18.30;44.50
24217;DHT22;12356;49.386;8.688;2022-09-16T13:12:55;18.30;43.80
24217;DHT22;12356;49.386;8.688;2022-09-16T13:18:19;18.40;42.50
24217;DHT22;12356;49.386;8.688;2022-09-16T13:20:55;18.40;42.00
24217;DHT22;12356;49.386;8.688;2022-09-16T13:23:33;18.50;42.40
24217;DHT22;12356;49.386;8.688;2022-09-16T13:26:06;18.50;43.80
24217;DHT22;12356;49.386;8.688;2022-09-16T13:28:42;18.60;43.70
24217;DHT22;12356;49.386;8.688;2022-09-16T13:33:47;18.60;45.40
24217;DHT22;12356;49.386;8.688;2022-09-16T13:38:58;18.70;42.60
24217;DHT22;12356;49.386;8.688;2022-09-16T13:41:41;18.60;42.40
24217;DHT22;12356;49.386;8.688;2022-09-16T13:52:43;18.60;42.40
24217;DHT22;12356;49.386;8.688;2022-09-16T13:55:20;18.50;44.00
24217;DHT22;12356;49.386;8.688;2022-09-16T13:58:28;18.40;42.80
24217;DHT22;12356;49.386;8.688;2022-09-16T14:01:15;18.30;43.30
24217;DHT22;12356;49.386;8.688;2022-09-16T14:04:12;18.30;44.10
24217;DHT22;12356;49.386;8.688;2022-09-16T14:09:37;18.40;46.30
24217;DHT22;12356;49.386;8.688;2022-09-16T14:15:14;18.40;47.40
24217;DHT22;12356;49.386;8.688;2022-09-16T14:17:52;18.30;49.40
24217;DHT22;12356;49.386;8.688;2022-09-16T14:20:25;18.10;49.70
24217;DHT22;12356;49.386;8.688;2022-09-16T14:23:00;18.00;50.10
24217;DHT22;12356;49.386;8.688;2022-09-16T14:25:35;17.90;51.70
24217;DHT22;12356;49.386;8.688;2022-09-16T14:28:19;17.90;50.10
24217;DHT22;12356;49.386;8.688;2022-09-16T14:30:58;17.80;50.20
24217;DHT22;12356;49.386;8.688;2022-09-16T14:33:35;17.90;52.20
24217;DHT22;12356;49.386;8.688;2022-09-16T14:36:09;17.80;53.50
24217;DHT22;12356;49.386;8.688;2022-09-16T14:38:44;17.70;54.60
24217;DHT22;12356;49.386;8.688;2022-09-16T14:41:28;17.60;54.70
24217;DHT22;12356;49.386;8.688;2022-09-16T14:44:54;17.50;56.10
24217;DHT22;12356;49.386;8.688;2022-09-16T14:47:18;17.40;56.70
24217;DHT22;12356;49.386;8.688;2022-09-16T14:49:53;17.40;57.40
24217;DHT22;12356;49.386;8.688;2022-09-16T14:52:27;17.20;57.70
24217;DHT22;12356;49.386;8.688;2022-09-16T14:54:59;17.20;58.10
24217;DHT22;12356;49.386;8.688;2022-09-16T14:57:30;17.10;58.80
24217;DHT22;12356;49.386;8.688;2022-09-16T15:00:04;17.00;59.20
24217;DHT22;12356;49.386;8.688;2022-09-16T15:02:42;17.00;59.70
24217;DHT22;12356;49.386;8.688;2022-09-16T15:05:36;17.00;60.00
24217;DHT22;12356;49.386;8.688;2022-09-16T15:08:22;17.10;60.30
24217;DHT22;12356;49.386;8.688;2022-09-16T15:10:57;17.10;60.80
24217;DHT22;12356;49.386;8.688;2022-09-16T15:13:33;17.20;61.20
24217;DHT22;12356;49.386;8.688;2022-09-16T15:16:14;17.20;56.90
24217;DHT22;12356;49.386;8.688;2022-09-16T15:19:04;17.20;53.50
24217;DHT22;12356;49.386;8.688;2022-09-16T15:21:37;17.20;55.40
24217;DHT22;12356;49.386;8.688;2022-09-16T15:24:14;17.20;56.70
24217;DHT22;12356;49.386;8.688;2022-09-16T15:26:46;17.10;57.00
24217;DHT22;12356;49.386;8.688;2022-09-16T15:31:48;16.90;59.60
24217;DHT22;12356;49.386;8.688;2022-09-16T15:34:23;16.60;60.90
24217;DHT22;12356;49.386;8.688;2022-09-16T15:36:55;16.50;63.50
24217;DHT22;12356;49.386;8.688;2022-09-16T15:39:37;16.50;65.70
24217;DHT22;12356;49.386;8.688;2022-09-16T15:42:17;16.50;68.60
24217;DHT22;12356;49.386;8.688;2022-09-16T15:44:52;16.40;69.50
24217;DHT22;12356;49.386;8.688;2022-09-16T15:47:26;16.40;69.50
24217;DHT22;12356;49.386;8.688;2022-09-16T15:52:59;16.50;70.00
24217;DHT22;12356;49.386;8.688;2022-09-16T15:56:00;16.50;68.40
24217;DHT22;12356;49.386;8.688;2022-09-16T15:58:38;16.50;70.50
24217;DHT22;12356;49.386;8.688;2022-09-16T16:01:20;16.50;69.80
24217;DHT22;12356;49.386;8.688;2022-09-16T16:03:52;16.50;68.60
24217;DHT22;12356;49.386;8.688;2022-09-16T16:06:43;16.50;70.30
24217;DHT22;12356;49.386;8.688;2022-09-16T16:12:06;16.30;67.40
24217;DHT22;12356;49.386;8.688;2022-09-16T16:14:38;16.20;66.40
24217;DHT22;12356;49.386;8.688;2022-09-16T16:17:18;16.30;69.70
24217;DHT22;12356;49.386;8.688;2022-09-16T16:19:49;16.30;69.60
24217;DHT22;12356;49.386;8.688;2022-09-16T16:22:20;16.30;67.80
24217;DHT22;12356;49.386;8.688;2022-09-16T16:24:51;16.40;69.30
24217;DHT22;12356;49.386;8.688;2022-09-16T16:27:22;16.50;69.10
24217;DHT22;12356;49.386;8.688;2022-09-16T16:29:58;16.50;67.80
24217;DHT22;12356;49.386;8.688;2022-09-16T16:32:28;16.40;68.00
24217;DHT22;12356;49.386;8.688;2022-09-16T16:35:00;16.40;68.30
24217;DHT22;12356;49.386;8.688;2022-09-16T16:37:31;16.40;65.70
24217;DHT22;12356;49.386;8.688;2022-09-16T16:40:04;16.30;63.20
24217;DHT22;12356;49.386;8.688;2022-09-16T16:42:34;16.30;64.50
24217;DHT22;12356;49.386;8.688;2022-09-16T16:45:06;16.30;64.70
24217;DHT22;12356;49.386;8.688;2022-09-16T16:47:36;16.40;65.20
24217;DHT22;12356;49.386;8.688;2022-09-16T16:50:09;16.30;64.80
24217;DHT22;12356;49.386;8.688;2022-09-16T16:52:40;16.30;65.00
24217;DHT22;12356;49.386;8.688;2022-09-16T16:55:11;16.30;65.60
24217;DHT22;12356;49.386;8.688;2022-09-16T16:57:41;16.30;69.00
24217;DHT22;12356;49.386;8.688;2022-09-16T17:00:13;16.30;69.40
24217;DHT22;12356;49.386;8.688;2022-09-16T17:02:45;16.30;69.40
24217;DHT22;12356;49.386;8.688;2022-09-16T17:05:16;16.30;67.40
24217;DHT22;12356;49.386;8.688;2022-09-16T17:07:46;16.30;68.20
24217;DHT22;12356;49.386;8.688;2022-09-16T17:10:17;16.30;67.80
24217;DHT22;12356;49.386;8.688;2022-09-16T17:12:48;16.20;65.60
24217;DHT22;12356;49.386;8.688;2022-09-16T17:15:18;16.00;64.50
24217;DHT22;12356;49.386;8.688;2022-09-16T17:17:49;16.00;65.00
24217;DHT22;12356;49.386;8.688;2022-09-16T17:20:20;16.00;65.00
24217;DHT22;12356;49.386;8.688;2022-09-16T17:22:50;15.80;65.10
24217;DHT22;12356;49.386;8.688;2022-09-16T17:25:21;15.80;65.60
24217;DHT22;12356;49.386;8.688;2022-09-16T17:27:51;15.60;64.50
24217;DHT22;12356;49.386;8.688;2022-09-16T17:30:22;15.50;65.50
24217;DHT22;12356;49.386;8.688;2022-09-16T17:32:53;15.40;65.70
24217;DHT22;12356;49.386;8.688;2022-09-16T17:35:23;15.30;66.30
24217;DHT22;12356;49.386;8.688;2022-09-16T17:37:54;15.30;67.30
24217;DHT22;12356;49.386;8.688;2022-09-16T17:40:25;15.40;68.10
24217;DHT22;12356;49.386;8.688;2022-09-16T17:42:56;15.40;67.40
24217;DHT22;12356;49.386;8.688;2022-09-16T17:45:26;15.40;67.90
24217;DHT22;12356;49.386;8.688;2022-09-16T17:47:57;15.50;67.80
24217;DHT22;12356;49.386;8.688;2022-09-16T17:50:28;15.50;67.70
24217;DHT22;12356;49.386;8.688;2022-09-16T17:52:59;15.50;68.00
24217;DHT22;12356;49.386;8.688;2022-09-16T17:55:29;15.60;67.90
24217;DHT22;12356;49.386;8.688;2022-09-16T17:58:00;15.60;68.10
24217;DHT22;12356;49.386;8.688;2022-09-16T18:00:30;15.50;67.90
24217;DHT22;12356;49.386;8.688;2022-09-16T18:03:01;15.60;69.10
24217;DHT22;12356;49.386;8.688;2022-09-16T18:05:34;15.60;68.70
24217;DHT22;12356;49.386;8.688;2022-09-16T18:08:05;15.60;69.30
24217;DHT22;12356;49.386;8.688;2022-09-16T18:10:36;15.60;68.20
24217;DHT22;12356;49.386;8.688;2022-09-16T18:13:06;15.60;68.30
24217;DHT22;12356;49.386;8.688;2022-09-16T18:15:39;15.60;68.10
24217;DHT22;12356;49.386;8.688;2022-09-16T18:18:09;15.60;68.90
24217;DHT22;12356;49.386;8.688;2022-09-16T18:20:40;15.60;68.50
24217;DHT22;12356;49.386;8.688;2022-09-16T18:23:10;15.60;68.40
24217;DHT22;12356;49.386;8.688;2022-09-16T18:25:41;15.50;67.50
24217;DHT22;12356;49.386;8.688;2022-09-16T18:28:12;15.50;67.50
24217;DHT22;12356;49.386;8.688;2022-09-16T18:30:43;15.50;67.20
24217;DHT22;12356;49.386;8.688;2022-09-16T18:33:13;15.50;67.40
24217;DHT22;12356;49.386;8.688;2022-09-16T18:35:44;15.50;66.60
24217;DHT22;12356;49.386;8.688;2022-09-16T18:38:14;15.50;67.90
24217;DHT22;12356;49.386;8.688;2022-09-16T18:40:47;15.50;68.20
24217;DHT22;12356;49.386;8.688;2022-09-16T18:43:17;15.50;67.60
24217;DHT22;12356;49.386;8.688;2022-09-16T18:45:48;15.40;68.10
24217;DHT22;12356;49.386;8.688;2022-09-16T18:48:19;15.30;67.90
24217;DHT22;12356;49.386;8.688;2022-09-16T18:50:49;15.20;67.70
24217;DHT22;12356;49.386;8.688;2022-09-16T18:53:20;15.30;69.20